Terminal Aerodrome Forecast
Issued by NWS

Home | Current Version | Previous Version | Graphics & Text | Print | Product List | Glossary Off
Versions: 1 2 3 4 5 6 7 8 9 10 11 12 13 14 15 16 17 18 19 20 21 22 23 24 25 26

956
FTUS43 KDDC 300520
TAFHYS
TAF
KHYS 300520Z 3006/0106 29006KT P6SM OVC070
     FM300900 30012KT P6SM SCT100
     FM301500 31022G32KT P6SM SCT100 SCT200
     FM302300 31009KT P6SM SKC=

USA.gov is the U.S. government's official web portal to all federal, state and local government web resources and services.